createdAt,value
2023-09-02T00:02:13.233Z,1.20
2023-09-02T00:04:42.200Z,1.85
2023-09-02T00:07:08.832Z,1.80
2023-09-02T00:09:35.464Z,1.40
2023-09-02T00:12:02.166Z,1.30
2023-09-02T00:14:28.897Z,1.40
2023-09-02T00:16:57.811Z,1.48
2023-09-02T00:19:24.839Z,1.58
2023-09-02T00:21:54.534Z,1.40
2023-09-02T00:24:21.117Z,1.20
2023-09-02T00:26:50.676Z,1.67
2023-09-02T00:29:19.565Z,1.30
2023-09-02T00:31:46.202Z,1.63
2023-09-02T00:34:12.892Z,1.63
2023-09-02T00:36:42.172Z,1.60
2023-09-02T00:39:11.469Z,1.63
2023-09-02T00:41:58.765Z,1.73
2023-09-02T00:44:27.803Z,2.03
2023-09-02T00:46:56.562Z,1.60
2023-09-02T00:49:23.482Z,1.67
2023-09-02T00:51:50.116Z,1.63
2023-09-02T00:54:16.897Z,1.80
2023-09-02T00:56:43.557Z,1.40
2023-09-02T00:59:10.399Z,1.77
2023-09-02T01:01:45.736Z,2.00
2023-09-02T01:04:14.910Z,1.83
2023-09-02T01:06:41.633Z,1.90
2023-09-02T01:09:08.578Z,2.10
2023-09-02T01:11:40.180Z,2.10
2023-09-02T01:14:10.015Z,1.65
2023-09-02T01:16:36.676Z,2.30
2023-09-02T01:19:06.050Z,2.00
2023-09-02T01:21:40.706Z,1.73
2023-09-02T01:24:48.782Z,2.20
2023-09-02T01:27:27.363Z,1.73
2023-09-02T01:30:02.845Z,1.70
2023-09-02T01:32:35.190Z,1.92
2023-09-02T01:35:08.670Z,1.95
2023-09-02T01:37:43.701Z,2.10
2023-09-02T01:40:23.177Z,1.90
2023-09-02T01:42:51.617Z,1.80
2023-09-02T01:45:23.748Z,1.80
2023-09-02T01:47:52.338Z,1.77
2023-09-02T01:50:23.778Z,2.13
2023-09-02T01:52:50.565Z,1.75
2023-09-02T01:55:17.830Z,1.98
2023-09-02T01:57:44.967Z,1.63
2023-09-02T02:00:12.550Z,2.45
2023-09-02T02:02:40.092Z,1.80
2023-09-02T02:05:11.278Z,1.77
2023-09-02T02:07:42.706Z,1.70
2023-09-02T02:10:13.352Z,1.50
2023-09-02T02:12:43.973Z,1.60
2023-09-02T02:15:13.255Z,1.80
2023-09-02T02:17:40.627Z,1.83
2023-09-02T02:20:08.574Z,1.70
2023-09-02T02:22:38.010Z,1.83
2023-09-02T02:25:07.330Z,1.65
2023-09-02T02:27:36.962Z,1.80
2023-09-02T02:30:05.214Z,1.88
2023-09-02T02:32:31.942Z,1.70
2023-09-02T02:34:58.534Z,1.60
2023-09-02T02:37:27.287Z,1.90
2023-09-02T02:39:53.907Z,1.67
2023-09-02T02:42:23.872Z,1.75
2023-09-02T02:44:52.903Z,1.80
2023-09-02T02:47:22.464Z,1.65
2023-09-02T02:49:49.056Z,1.80
2023-09-02T02:52:16.277Z,1.77
2023-09-02T02:54:42.864Z,1.70
2023-09-02T02:57:12.606Z,1.90
2023-09-02T02:59:41.628Z,2.03
2023-09-02T03:02:10.415Z,1.90
2023-09-02T03:04:47.897Z,1.83
2023-09-02T03:07:14.642Z,1.60
2023-09-02T03:09:41.582Z,1.70
2023-09-02T03:12:10.959Z,1.75
2023-09-02T03:14:40.037Z,1.70
2023-09-02T03:17:06.996Z,2.20
2023-09-02T03:19:33.578Z,1.70
2023-09-02T03:22:02.761Z,1.80
2023-09-02T03:24:32.673Z,1.70
2023-09-02T03:27:00.812Z,2.00
2023-09-02T03:29:28.252Z,1.73
2023-09-02T03:31:59.702Z,1.92
2023-09-02T03:34:28.903Z,2.00
2023-09-02T03:36:58.427Z,1.55
2023-09-02T03:39:27.980Z,2.00
2023-09-02T03:41:57.012Z,1.83
2023-09-02T03:44:26.028Z,2.03
2023-09-02T03:46:55.203Z,1.90
2023-09-02T03:49:24.277Z,1.75
2023-09-02T03:51:50.918Z,1.90
2023-09-02T03:54:17.511Z,2.10
2023-09-02T03:56:46.617Z,1.80
2023-09-02T03:59:13.359Z,1.88
2023-09-02T04:01:42.707Z,2.20
2023-09-02T04:04:14.068Z,1.85
2023-09-02T04:06:40.626Z,1.97
2023-09-02T04:09:12.075Z,1.70
2023-09-02T04:11:38.852Z,1.80
2023-09-02T04:14:05.578Z,1.92
2023-09-02T04:16:35.126Z,2.00
2023-09-02T04:19:04.042Z,2.00
2023-09-02T04:21:31.656Z,1.85
2023-09-02T04:24:01.632Z,1.83
2023-09-02T04:26:28.283Z,1.60
2023-09-02T04:28:57.800Z,2.08
2023-09-02T04:31:30.457Z,1.90
2023-09-02T04:33:57.849Z,2.10
2023-09-02T04:36:26.672Z,2.00
2023-09-02T04:38:53.378Z,2.08
2023-09-02T04:41:20.038Z,2.25
2023-09-02T04:43:49.938Z,2.13
2023-09-02T04:46:19.302Z,2.10
2023-09-02T04:48:48.497Z,1.92
2023-09-02T04:51:20.418Z,1.92
2023-09-02T04:53:51.600Z,2.15
2023-09-02T04:56:18.238Z,2.00
2023-09-02T04:58:44.988Z,2.00
2023-09-02T05:01:16.829Z,2.17
2023-09-02T05:03:43.547Z,1.80
2023-09-02T05:06:15.038Z,1.73
2023-09-02T05:08:43.934Z,2.10
2023-09-02T05:11:10.701Z,2.00
2023-09-02T05:13:42.174Z,1.65
2023-09-02T05:16:08.836Z,1.83
2023-09-02T05:18:35.548Z,1.45
2023-09-02T05:21:02.591Z,1.60
2023-09-02T05:23:29.289Z,1.20
2023-09-02T05:25:58.802Z,1.60
2023-09-02T05:28:28.298Z,1.85
2023-09-02T05:30:57.424Z,1.70
2023-09-02T05:33:24.101Z,1.80
2023-09-02T05:35:51.678Z,1.55
2023-09-02T05:38:22.843Z,1.92
2023-09-02T05:40:51.838Z,2.00
2023-09-02T05:43:18.731Z,1.98
2023-09-02T05:45:45.646Z,1.57
2023-09-02T05:48:14.539Z,1.63
2023-09-02T05:50:41.150Z,1.90
2023-09-02T05:53:10.111Z,2.00
2023-09-02T05:55:36.874Z,2.20
2023-09-02T05:58:03.721Z,1.70
2023-09-02T06:00:30.384Z,2.35
2023-09-02T06:02:59.830Z,2.30
2023-09-02T06:05:30.137Z,2.15
2023-09-02T06:07:57.099Z,2.00
2023-09-02T06:10:23.726Z,1.40
2023-09-02T06:12:50.349Z,1.65
2023-09-02T06:15:17.089Z,2.00
2023-09-02T06:17:46.073Z,1.63
2023-09-02T06:20:21.443Z,1.60
2023-09-02T06:22:48.058Z,1.60
2023-09-02T06:25:14.730Z,1.73
2023-09-02T06:27:41.322Z,1.80
2023-09-02T06:30:08.701Z,2.00
2023-09-02T06:32:35.361Z,2.40
2023-09-02T06:35:02.039Z,2.13
2023-09-02T06:37:30.324Z,2.00
2023-09-02T06:39:57.175Z,2.30
2023-09-02T06:42:26.284Z,2.47
2023-09-02T06:44:58.432Z,2.05
2023-09-02T06:47:29.921Z,2.40
2023-09-02T06:49:59.333Z,2.47
2023-09-02T06:52:26.058Z,2.40
2023-09-02T06:54:55.635Z,2.60
2023-09-02T06:57:22.326Z,2.80
2023-09-02T06:59:51.513Z,2.57
2023-09-02T07:02:18.184Z,2.50
2023-09-02T07:04:51.279Z,2.95
2023-09-02T07:07:20.133Z,2.47
2023-09-02T07:09:49.214Z,2.38
2023-09-02T07:12:16.690Z,3.03
2023-09-02T07:14:43.304Z,2.88
2023-09-02T07:17:12.289Z,2.63
2023-09-02T07:19:38.944Z,2.60
2023-09-02T07:22:05.575Z,2.35
2023-09-02T07:24:34.397Z,2.93
2023-09-02T07:27:03.238Z,2.78
2023-09-02T07:29:32.550Z,2.70
2023-09-02T07:31:59.150Z,2.42
2023-09-02T07:34:25.815Z,2.80
2023-09-02T07:36:55.384Z,2.80
2023-09-02T07:39:24.334Z,2.75
2023-09-02T07:41:53.283Z,2.83
2023-09-02T07:44:19.887Z,2.75
2023-09-02T07:46:46.603Z,2.72
2023-09-02T07:49:15.822Z,2.80
2023-09-02T07:51:43.134Z,2.75
2023-09-02T07:54:11.858Z,3.10
2023-09-02T07:56:39.028Z,2.50
2023-09-02T07:59:07.987Z,2.60
2023-09-02T08:01:37.146Z,2.60
2023-09-02T08:04:05.416Z,2.97
2023-09-02T08:06:32.246Z,2.60
2023-09-02T08:09:01.411Z,2.40
2023-09-02T08:11:28.111Z,2.50
2023-09-02T08:13:54.755Z,2.33
2023-09-02T08:16:21.397Z,2.97
2023-09-02T08:18:48.245Z,2.80
2023-09-02T08:21:14.849Z,2.55
2023-09-02T08:23:41.587Z,2.55
2023-09-02T08:26:16.403Z,2.40
2023-09-02T08:28:46.432Z,2.78
2023-09-02T08:31:19.210Z,2.85
2023-09-02T08:33:45.829Z,2.72
2023-09-02T08:36:16.776Z,3.28
2023-09-02T08:38:44.063Z,3.43
2023-09-02T08:41:18.305Z,3.40
2023-09-02T08:43:45.154Z,2.80
2023-09-02T08:46:16.784Z,3.00
2023-09-02T08:48:49.097Z,3.13
2023-09-02T08:51:18.381Z,3.33
2023-09-02T08:53:47.537Z,3.30
2023-09-02T08:56:14.276Z,3.75
2023-09-02T08:58:44.264Z,4.65
2023-09-02T09:01:13.792Z,4.63
2023-09-02T09:03:50.226Z,3.30
2023-09-02T09:06:20.156Z,3.45
2023-09-02T09:08:51.081Z,3.05
2023-09-02T09:11:23.984Z,3.10
2023-09-02T09:13:52.734Z,2.88
2023-09-02T09:16:26.090Z,2.80
2023-09-02T09:18:52.863Z,2.63
2023-09-02T09:21:19.598Z,2.40
2023-09-02T09:23:46.292Z,3.05
2023-09-02T09:26:19.550Z,3.00
2023-09-02T09:29:02.307Z,2.47
2023-09-02T09:31:31.372Z,2.80
2023-09-02T09:34:00.305Z,3.20
2023-09-02T09:36:31.210Z,2.50
2023-09-02T09:39:02.304Z,2.88
2023-09-02T09:41:33.802Z,2.80
2023-09-02T09:44:26.854Z,2.50
2023-09-02T09:46:54.291Z,2.88
2023-09-02T09:49:33.849Z,2.63
2023-09-02T09:52:00.439Z,2.70
2023-09-02T09:54:41.619Z,2.90
2023-09-02T09:57:15.218Z,3.03
2023-09-02T09:59:52.903Z,2.70
2023-09-02T10:02:21.580Z,2.38
2023-09-02T10:04:58.393Z,2.83
2023-09-02T10:07:32.229Z,3.30
2023-09-02T10:10:06.585Z,3.10
2023-09-02T10:12:39.378Z,2.70
2023-09-02T10:15:07.749Z,2.38
2023-09-02T10:17:36.456Z,2.50
2023-09-02T10:20:06.880Z,2.20
2023-09-02T10:22:43.162Z,2.50
2023-09-02T10:25:20.642Z,2.53
2023-09-02T10:28:01.833Z,2.47
2023-09-02T10:30:43.648Z,2.53
2023-09-02T10:33:44.375Z,2.37
2023-09-02T10:36:13.730Z,2.80
2023-09-02T10:38:45.390Z,2.72
2023-09-02T10:41:18.694Z,2.53
2023-09-02T10:43:47.850Z,2.60
2023-09-02T10:46:14.572Z,2.93
2023-09-02T10:48:44.430Z,2.50
2023-09-02T10:51:14.985Z,1.98
2023-09-02T10:53:53.414Z,2.35
2023-09-02T10:56:38.726Z,2.40
2023-09-02T10:59:08.548Z,2.20
2023-09-02T11:01:47.871Z,2.45
2023-09-02T11:04:56.703Z,2.28
2023-09-02T11:07:25.573Z,2.50
2023-09-02T11:09:59.448Z,2.80
2023-09-02T11:12:27.553Z,2.83
2023-09-02T11:15:09.569Z,2.40
2023-09-02T11:17:37.978Z,2.85
2023-09-02T11:20:04.961Z,2.60
2023-09-02T11:22:57.710Z,2.95
2023-09-02T11:25:30.404Z,2.57
2023-09-02T11:28:01.168Z,2.50
2023-09-02T11:30:33.700Z,2.55
2023-09-02T11:33:06.487Z,2.58
2023-09-02T11:35:35.400Z,2.55
2023-09-02T11:38:05.944Z,2.63
2023-09-02T11:40:33.021Z,3.35
2023-09-02T11:43:03.441Z,2.45
2023-09-02T11:45:41.552Z,3.05
2023-09-02T11:48:08.325Z,2.40
2023-09-02T11:50:38.943Z,2.60
2023-09-02T11:53:07.026Z,2.30
2023-09-02T11:55:33.703Z,2.50
2023-09-02T11:58:08.299Z,2.42
2023-09-02T12:00:35.031Z,2.90
2023-09-02T12:03:04.714Z,2.57
2023-09-02T12:05:39.546Z,2.70
2023-09-02T12:08:10.903Z,2.38
2023-09-02T12:10:42.379Z,2.63
2023-09-02T12:13:10.075Z,2.30
2023-09-02T12:15:36.699Z,2.50
2023-09-02T12:18:05.785Z,2.45
2023-09-02T12:20:32.850Z,2.15
2023-09-02T12:22:59.896Z,2.20
2023-09-02T12:25:27.399Z,1.83
2023-09-02T12:28:11.753Z,2.13
2023-09-02T12:30:39.072Z,1.70
2023-09-02T12:33:08.768Z,2.53
2023-09-02T12:35:37.883Z,2.28
2023-09-02T12:38:06.532Z,2.00
2023-09-02T12:40:36.511Z,2.53
2023-09-02T12:43:03.730Z,2.58
2023-09-02T12:45:41.679Z,2.10
2023-09-02T12:48:11.248Z,2.42
2023-09-02T12:50:41.450Z,2.33
2023-09-02T12:53:08.345Z,2.03
2023-09-02T12:55:41.391Z,2.05
2023-09-02T12:58:08.249Z,2.20
2023-09-02T13:00:34.878Z,2.22
2023-09-02T13:03:01.522Z,2.30
2023-09-02T13:05:29.401Z,2.37
2023-09-02T13:07:59.138Z,2.30
2023-09-02T13:10:28.298Z,2.42
2023-09-02T13:12:58.823Z,2.00
2023-09-02T13:15:26.501Z,2.67
2023-09-02T13:17:55.627Z,2.17
2023-09-02T13:20:27.070Z,2.28
2023-09-02T13:22:53.750Z,2.53
2023-09-02T13:25:22.773Z,2.58
2023-09-02T13:27:51.872Z,2.45
2023-09-02T13:30:26.104Z,2.97
2023-09-02T13:32:52.765Z,2.97
2023-09-02T13:35:25.027Z,2.40
2023-09-02T13:37:51.695Z,2.85
2023-09-02T13:40:20.777Z,2.30
2023-09-02T13:42:51.252Z,2.60
2023-09-02T13:45:31.287Z,2.35
2023-09-02T13:48:00.660Z,2.60
2023-09-02T13:50:28.110Z,2.05
2023-09-02T13:52:56.633Z,2.40
2023-09-02T13:55:29.564Z,2.40
2023-09-02T13:57:56.687Z,2.60
2023-09-02T14:00:32.377Z,2.83
2023-09-02T14:03:01.160Z,2.88
2023-09-02T14:05:28.020Z,2.45
2023-09-02T14:08:04.070Z,2.50
2023-09-02T14:10:33.252Z,2.30
2023-09-02T14:13:09.857Z,2.17
2023-09-02T14:15:38.987Z,2.22
2023-09-02T14:18:05.901Z,2.30
2023-09-02T14:20:35.990Z,2.63
2023-09-02T14:23:05.519Z,2.20
2023-09-02T14:25:33.205Z,2.05
2023-09-02T14:28:00.522Z,2.28
2023-09-02T14:30:27.168Z,2.45
2023-09-02T14:32:56.811Z,2.60
2023-09-02T14:35:25.845Z,2.53
2023-09-02T14:37:59.303Z,2.30
2023-09-02T14:40:46.103Z,2.45
2023-09-02T14:43:18.981Z,2.10
2023-09-02T14:45:49.042Z,2.20
2023-09-02T14:48:15.645Z,2.53
2023-09-02T14:50:44.631Z,2.53
2023-09-02T14:53:13.461Z,2.00
2023-09-02T14:55:49.241Z,2.47
2023-09-02T14:58:21.773Z,2.27
2023-09-02T15:00:56.673Z,2.53
2023-09-02T15:03:33.894Z,2.45
2023-09-02T15:06:00.929Z,2.83
2023-09-02T15:08:28.575Z,2.22
2023-09-02T15:11:00.435Z,2.50
2023-09-02T15:13:32.414Z,2.30
2023-09-02T15:16:04.070Z,2.45
2023-09-02T15:18:32.191Z,2.28
2023-09-02T15:21:04.345Z,2.50
2023-09-02T15:23:41.739Z,2.30
2023-09-02T15:26:10.802Z,2.45
2023-09-02T15:28:42.951Z,2.55
2023-09-02T15:31:12.121Z,2.10
2023-09-02T15:33:38.891Z,2.20
2023-09-02T15:36:16.315Z,2.20
2023-09-02T15:38:45.282Z,2.50
2023-09-02T15:41:16.694Z,2.08
2023-09-02T15:43:43.408Z,2.42
2023-09-02T15:46:10.013Z,2.35
2023-09-02T15:48:41.405Z,2.30
2023-09-02T15:51:12.786Z,2.20
2023-09-02T15:53:39.390Z,2.80
2023-09-02T15:56:06.206Z,2.13
2023-09-02T15:58:33.509Z,1.88
2023-09-02T16:01:00.146Z,2.00
2023-09-02T16:03:26.964Z,2.22
2023-09-02T16:05:56.619Z,2.13
2023-09-02T16:08:26.347Z,2.22
2023-09-02T16:10:54.988Z,2.40
2023-09-02T16:13:25.638Z,2.43
2023-09-02T16:15:52.372Z,2.05
2023-09-02T16:18:21.349Z,2.63
2023-09-02T16:20:48.651Z,2.05
2023-09-02T16:23:15.286Z,2.47
2023-09-02T16:25:46.717Z,2.10
2023-09-02T16:28:15.613Z,2.00
2023-09-02T16:30:46.900Z,2.25
2023-09-02T16:33:18.469Z,2.20
2023-09-02T16:35:48.984Z,2.10
2023-09-02T16:38:15.691Z,1.80
2023-09-02T16:40:42.768Z,2.10
2023-09-02T16:43:10.652Z,2.20
2023-09-02T16:45:39.943Z,2.10
2023-09-02T16:48:13.236Z,1.80
2023-09-02T16:50:40.837Z,2.20
2023-09-02T16:53:10.774Z,2.00
2023-09-02T16:55:40.139Z,2.00
2023-09-02T16:58:09.630Z,1.98
2023-09-02T17:00:36.638Z,1.98
2023-09-02T17:03:06.841Z,2.13
2023-09-02T17:05:34.762Z,2.00
2023-09-02T17:08:08.925Z,1.95
2023-09-02T17:10:36.036Z,2.00
2023-09-02T17:13:07.962Z,2.03
2023-09-02T17:15:40.646Z,2.00
2023-09-02T17:18:10.856Z,2.05
2023-09-02T17:20:46.203Z,1.75
2023-09-02T17:23:19.937Z,1.92
2023-09-02T17:25:52.169Z,1.92
2023-09-02T17:28:27.124Z,1.80
2023-09-02T17:31:09.955Z,1.95
2023-09-02T17:33:40.828Z,2.13
2023-09-02T17:36:10.826Z,1.65
2023-09-02T17:38:41.858Z,2.03
2023-09-02T17:41:11.177Z,2.03
2023-09-02T17:43:37.754Z,1.63
2023-09-02T17:46:06.826Z,1.80
2023-09-02T17:48:36.149Z,1.77
2023-09-02T17:51:02.791Z,1.75
2023-09-02T17:53:31.904Z,1.50
2023-09-02T17:55:58.595Z,1.63
2023-09-02T17:58:29.127Z,1.77
2023-09-02T18:00:56.115Z,1.45
2023-09-02T18:03:23.160Z,1.60
2023-09-02T18:05:54.438Z,1.70
2023-09-02T18:08:21.714Z,1.58
2023-09-02T18:10:48.594Z,1.67
2023-09-02T18:13:15.187Z,1.90
2023-09-02T18:15:44.159Z,1.50
2023-09-02T18:18:10.763Z,1.50
2023-09-02T18:20:39.446Z,1.70
2023-09-02T18:23:08.418Z,1.70
2023-09-02T18:25:37.786Z,1.40
2023-09-02T18:28:04.702Z,1.27
2023-09-02T18:30:33.882Z,1.50
2023-09-02T18:33:03.002Z,1.70
2023-09-02T18:35:32.204Z,1.60
2023-09-02T18:37:58.754Z,1.90
2023-09-02T18:40:25.485Z,1.70
2023-09-02T18:42:54.320Z,1.50
2023-09-02T18:45:20.905Z,1.73
2023-09-02T18:47:52.326Z,1.75
2023-09-02T18:50:19.003Z,1.65
2023-09-02T18:52:49.056Z,1.38
2023-09-02T18:55:15.860Z,1.70
2023-09-02T18:57:44.805Z,1.65
2023-09-02T19:00:11.977Z,1.80
2023-09-02T19:02:38.640Z,1.90
2023-09-02T19:05:05.604Z,1.60
2023-09-02T19:07:35.389Z,1.80
2023-09-02T19:10:02.082Z,1.73
2023-09-02T19:12:28.662Z,1.95
2023-09-02T19:14:55.669Z,1.60
2023-09-02T19:17:22.404Z,1.58
2023-09-02T19:19:52.671Z,1.73
2023-09-02T19:22:19.467Z,1.67
2023-09-02T19:24:50.822Z,1.70
2023-09-02T19:27:22.404Z,1.70
2023-09-02T19:29:49.001Z,1.85
2023-09-02T19:32:15.611Z,1.80
2023-09-02T19:34:44.442Z,2.00
2023-09-02T19:37:16.731Z,1.77
2023-09-02T19:39:45.541Z,2.00
2023-09-02T19:42:12.381Z,2.25
2023-09-02T19:44:41.948Z,2.10
2023-09-02T19:47:11.599Z,2.13
2023-09-02T19:49:39.245Z,2.33
2023-09-02T19:52:08.192Z,1.95
2023-09-02T19:54:34.777Z,1.70
2023-09-02T19:57:03.730Z,1.73
2023-09-02T19:59:30.394Z,2.00
2023-09-02T20:01:57.087Z,1.75
2023-09-02T20:04:24.204Z,1.90
2023-09-02T20:06:50.928Z,1.40
2023-09-02T20:09:22.353Z,1.70
2023-09-02T20:11:51.875Z,2.05
2023-09-02T20:14:18.578Z,1.70
2023-09-02T20:16:48.811Z,1.33
2023-09-02T20:19:18.070Z,1.50
2023-09-02T20:21:44.672Z,1.63
2023-09-02T20:24:13.802Z,1.90
2023-09-02T20:26:40.490Z,2.03
2023-09-02T20:29:07.122Z,2.40
2023-09-02T20:31:34.183Z,2.10
2023-09-02T20:34:05.384Z,2.10
2023-09-02T20:36:32.018Z,1.92
2023-09-02T20:38:58.565Z,2.38
2023-09-02T20:41:25.120Z,2.00
2023-09-02T20:43:52.505Z,2.30
2023-09-02T20:46:19.159Z,2.43
2023-09-02T20:48:46.178Z,1.73
2023-09-02T20:51:16.085Z,1.88
2023-09-02T20:53:42.753Z,1.60
2023-09-02T20:56:11.918Z,1.80
2023-09-02T20:58:39.075Z,1.87
2023-09-02T21:01:10.092Z,1.85
2023-09-02T21:03:37.544Z,2.13
2023-09-02T21:06:10.936Z,2.33
2023-09-02T21:08:38.685Z,1.95
2023-09-02T21:11:16.211Z,1.87
2023-09-02T21:13:47.603Z,2.25
2023-09-02T21:16:21.447Z,2.15
2023-09-02T21:18:50.423Z,2.05
2023-09-02T21:21:23.937Z,1.70
2023-09-02T21:23:53.551Z,2.40
2023-09-02T21:26:21.130Z,2.30
2023-09-02T21:28:51.776Z,2.05
2023-09-02T21:31:21.408Z,2.20
2023-09-02T21:33:48.623Z,2.35
2023-09-02T21:36:19.368Z,2.10
2023-09-02T21:38:49.969Z,2.00
2023-09-02T21:41:19.137Z,2.85
2023-09-02T21:43:45.804Z,2.00
2023-09-02T21:46:15.949Z,2.88
2023-09-02T21:48:42.656Z,2.67
2023-09-02T21:51:14.448Z,2.22
2023-09-02T21:53:44.379Z,2.33
2023-09-02T21:56:11.329Z,2.15
2023-09-02T21:58:40.404Z,2.00
2023-09-02T22:01:12.003Z,2.40
2023-09-02T22:03:39.415Z,2.20
2023-09-02T22:06:13.613Z,2.10
2023-09-02T22:08:43.026Z,2.42
2023-09-02T22:11:11.184Z,2.00
2023-09-02T22:13:38.323Z,2.63
2023-09-02T22:16:08.273Z,2.00
2023-09-02T22:18:37.491Z,2.58
2023-09-02T22:21:06.616Z,2.40
2023-09-02T22:23:34.768Z,2.47
2023-09-02T22:26:05.807Z,2.50
2023-09-02T22:28:39.947Z,2.10
2023-09-02T22:31:09.196Z,2.10
2023-09-02T22:33:36.008Z,2.50
2023-09-02T22:36:03.437Z,2.30
2023-09-02T22:38:51.959Z,2.67
2023-09-02T22:41:21.118Z,2.50
2023-09-02T22:43:47.765Z,2.72
2023-09-02T22:46:14.518Z,2.60
2023-09-02T22:48:43.454Z,3.05
2023-09-02T22:51:13.126Z,2.97
2023-09-02T22:53:40.457Z,2.20
2023-09-02T22:56:15.398Z,2.47
2023-09-02T22:58:44.693Z,2.70
2023-09-02T23:01:14.812Z,2.60
2023-09-02T23:03:45.847Z,2.90
2023-09-02T23:06:12.981Z,2.50
2023-09-02T23:08:40.862Z,2.53
2023-09-02T23:11:10.914Z,2.28
2023-09-02T23:13:37.780Z,2.75
2023-09-02T23:16:07.058Z,2.80
2023-09-02T23:18:36.639Z,2.30
2023-09-02T23:21:14.334Z,2.60
2023-09-02T23:23:41.196Z,2.17
2023-09-02T23:26:08.241Z,2.33
2023-09-02T23:28:39.813Z,2.57
2023-09-02T23:31:09.180Z,2.25
2023-09-02T23:33:38.763Z,2.53
2023-09-02T23:36:06.013Z,2.22
2023-09-02T23:38:32.790Z,2.40
2023-09-02T23:41:01.653Z,2.30
2023-09-02T23:43:33.031Z,2.40
2023-09-02T23:46:00.363Z,2.70
2023-09-02T23:48:30.060Z,2.30
2023-09-02T23:50:59.343Z,2.33
2023-09-02T23:53:26.369Z,2.50
2023-09-02T23:55:57.729Z,2.70
2023-09-02T23:58:24.306Z,2.63
